Time;durP1;ratioP1;P1;durP2;ratioP2;P2;SDS_P1;SDS_P2;PMS_P1;PMS_P2;Temp;Humidity;BMP_temperature;BMP_pressure;BME280_temperature;BME280_humidity;BME280_pressure;Samples;Min_cycle;Max_cycle;Signal;HPM_P1;HPM_P2
2021/06/06 00:02:43;;;;;;;9.88;5.50;;;;;;;;;;8290569;28;20387;-66
2021/06/06 00:06:48;;;;;;;7.65;4.80;;;;;;;;;;8290442;28;20375;-65
2021/06/06 00:11:14;;;;;;;8.37;5.20;;;;;;;;;;8292814;28;20391;-65
2021/06/06 00:15:20;;;;;;;8.05;4.40;;;;;;;;;;8292878;28;20485;-66
2021/06/06 00:19:26;;;;;;;6.38;4.70;;;;;;;;;;8290484;28;20394;-66
2021/06/06 00:23:32;;;;;;;9.25;5.97;;;;;;;;;;8291588;28;20079;-65
2021/06/06 00:27:37;;;;;;;7.90;5.90;;;;;;;;;;8293180;28;20446;-65
2021/06/06 00:31:42;;;;;;;8.55;5.63;;;;;;;;;;8290613;28;20353;-65
2021/06/06 00:35:47;;;;;;;9.93;6.07;;;;;;;;;;8317876;28;20498;-66
2021/06/06 00:39:52;;;;;;;11.45;5.68;;;;;;;;;;8322716;28;20458;-65
2021/06/06 00:44:00;;;;;;;9.38;6.13;;;;;;;;;;8322076;28;21336;-65
2021/06/06 00:48:06;;;;;;;10.98;6.47;;;;;;;;;;8323411;28;20421;-65
2021/06/06 00:52:17;;;;;;;9.90;6.03;;;;;;;;;;8325515;28;20455;-67
2021/06/06 00:56:27;;;;;;;10.30;5.85;;;;;;;;;;8323070;28;20385;-65
2021/06/06 01:00:44;;;;;;;7.70;4.53;;;;;;;;;;8321458;28;20451;-65
2021/06/06 01:04:50;;;;;;;9.13;5.25;;;;;;;;;;8322290;28;20347;-65
2021/06/06 01:08:57;;;;;;;9.00;5.38;;;;;;;;;;8323553;28;20414;-65
2021/06/06 01:13:21;;;;;;;13.95;5.50;;;;;;;;;;8323228;28;20074;-65
2021/06/06 01:17:52;;;;;;;10.02;5.38;;;;;;;;;;8305796;28;20470;-65
2021/06/06 01:22:34;;;;;;;8.35;5.13;;;;;;;;;;8306820;28;20408;-65
2021/06/06 01:26:55;;;;;;;8.85;5.30;;;;;;;;;;8323235;28;20466;-65
2021/06/06 01:31:06;;;;;;;11.60;5.80;;;;;;;;;;8322866;28;20413;-65
2021/06/06 01:35:23;;;;;;;8.32;5.22;;;;;;;;;;8321405;28;20382;-65
2021/06/06 01:39:40;;;;;;;7.32;5.32;;;;;;;;;;8323542;28;20362;-65
2021/06/06 01:43:56;;;;;;;6.32;4.63;;;;;;;;;;8321023;28;20521;-67
2021/06/06 01:48:08;;;;;;;12.55;5.57;;;;;;;;;;8306642;28;20339;-65
2021/06/06 01:52:18;;;;;;;9.85;5.30;;;;;;;;;;8320703;28;20494;-65
2021/06/06 01:56:29;;;;;;;6.57;4.82;;;;;;;;;;8323588;28;20442;-64
2021/06/06 02:00:49;;;;;;;8.93;5.07;;;;;;;;;;8327227;28;20370;-66
2021/06/06 02:05:14;;;;;;;;;;;;;;;;;;8331134;28;20454;-65
2021/06/06 02:09:27;;;;;;;10.75;5.45;;;;;;;;;;8312104;28;20365;-66
2021/06/06 02:13:57;;;;;;;14.13;5.60;;;;;;;;;;8313946;28;20344;-65
2021/06/06 02:18:09;;;;;;;9.80;4.93;;;;;;;;;;8328467;28;20048;-65
2021/06/06 02:22:16;;;;;;;9.65;4.72;;;;;;;;;;8327426;28;20485;-65
2021/06/06 02:26:33;;;;;;;5.97;4.53;;;;;;;;;;8328920;28;20482;-65
2021/06/06 02:30:58;;;;;;;7.40;4.57;;;;;;;;;;8327886;28;20474;-65
2021/06/06 02:35:25;;;;;;;8.23;4.55;;;;;;;;;;8310728;28;20490;-65
2021/06/06 02:39:37;;;;;;;10.10;4.50;;;;;;;;;;8327043;28;20501;-65
2021/06/06 02:44:14;;;;;;;7.93;4.60;;;;;;;;;;8310697;28;20347;-65
2021/06/06 02:48:34;;;;;;;6.88;4.90;;;;;;;;;;8326097;28;20066;-65
2021/06/06 02:52:51;;;;;;;8.57;4.75;;;;;;;;;;8311128;28;20619;-65
2021/06/06 02:57:09;;;;;;;8.30;6.10;;;;;;;;;;8325259;28;20048;-65
2021/06/06 03:01:23;;;;;;;8.57;6.32;;;;;;;;;;8326769;28;20443;-65
2021/06/06 03:05:30;;;;;;;10.02;6.72;;;;;;;;;;8325148;28;20477;-65
2021/06/06 03:09:37;;;;;;;7.57;6.10;;;;;;;;;;8307863;28;20473;-65
2021/06/06 03:13:55;;;;;;;8.97;5.43;;;;;;;;;;8326509;28;20493;-65
2021/06/06 03:18:04;;;;;;;6.95;5.03;;;;;;;;;;8309367;28;20460;-66
2021/06/06 03:22:17;;;;;;;9.55;5.22;;;;;;;;;;8324170;28;20462;-65
2021/06/06 03:26:26;;;;;;;7.28;5.38;;;;;;;;;;8326311;28;20071;-65
2021/06/06 03:30:46;;;;;;;9.25;6.53;;;;;;;;;;8325704;28;20379;-65
2021/06/06 03:35:08;;;;;;;7.55;5.95;;;;;;;;;;8324053;28;20364;-65
2021/06/06 03:39:23;;;;;;;9.13;6.13;;;;;;;;;;8323908;28;20339;-65
2021/06/06 03:43:28;;;;;;;7.05;5.53;;;;;;;;;;8324113;28;20459;-64
2021/06/06 03:47:34;;;;;;;7.05;5.50;;;;;;;;;;8324045;28;20363;-65
2021/06/06 03:51:39;;;;;;;7.65;5.80;;;;;;;;;;8324419;28;20512;-65
2021/06/06 03:55:44;;;;;;;8.00;6.03;;;;;;;;;;8327540;28;20443;-64
2021/06/06 03:59:53;;;;;;;7.57;6.00;;;;;;;;;;8323310;28;20051;-65
2021/06/06 04:04:01;;;;;;;7.67;5.47;;;;;;;;;;8324339;28;20370;-65
2021/06/06 04:08:08;;;;;;;8.63;6.63;;;;;;;;;;8324510;28;20451;-65
2021/06/06 04:12:20;;;;;;;7.20;5.78;;;;;;;;;;8324326;28;20446;-65
2021/06/06 04:16:24;;;;;;;7.60;6.07;;;;;;;;;;8323914;28;20553;-65
2021/06/06 04:20:29;;;;;;;10.38;6.20;;;;;;;;;;8322069;28;20386;-64
2021/06/06 04:24:35;;;;;;;8.80;6.38;;;;;;;;;;8322595;28;20471;-64
2021/06/06 04:28:43;;;;;;;9.80;6.25;;;;;;;;;;8323216;28;20482;-64
2021/06/06 04:32:54;;;;;;;7.18;5.30;;;;;;;;;;8321747;28;20375;-65
2021/06/06 04:36:58;;;;;;;10.55;5.15;;;;;;;;;;8323915;28;20348;-64
2021/06/06 04:41:10;;;;;;;7.70;5.57;;;;;;;;;;8322091;28;20371;-65
2021/06/06 04:45:16;;;;;;;8.93;5.55;;;;;;;;;;8323059;28;20537;-65
2021/06/06 04:49:21;;;;;;;8.75;5.30;;;;;;;;;;8322107;28;20568;-66
2021/06/06 04:53:27;;;;;;;8.05;5.68;;;;;;;;;;8323386;28;20442;-64
2021/06/06 04:57:38;;;;;;;9.18;5.68;;;;;;;;;;8322459;28;20336;-65
2021/06/06 05:01:45;;;;;;;6.85;4.90;;;;;;;;;;8322372;28;20467;-66
2021/06/06 05:05:52;;;;;;;7.03;5.33;;;;;;;;;;8324306;28;20328;-65
2021/06/06 05:09:58;;;;;;;10.68;5.75;;;;;;;;;;8321195;28;20056;-66
2021/06/06 05:14:07;;;;;;;7.22;4.82;;;;;;;;;;8323413;28;20082;-66
2021/06/06 05:18:15;;;;;;;7.60;4.63;;;;;;;;;;8321592;28;20375;-66
2021/06/06 05:22:20;;;;;;;4.65;3.85;;;;;;;;;;8320827;28;20400;-66
2021/06/06 05:26:27;;;;;;;9.18;4.57;;;;;;;;;;8322591;28;20048;-65
2021/06/06 05:30:36;;;;;;;5.22;3.85;;;;;;;;;;8324150;28;20359;-66
2021/06/06 05:34:42;;;;;;;6.55;4.32;;;;;;;;;;8330236;28;20462;-65
2021/06/06 05:38:46;;;;;;;5.60;4.17;;;;;;;;;;8330839;28;20490;-66
2021/06/06 05:42:51;;;;;;;9.68;4.20;;;;;;;;;;8329284;28;20467;-66
2021/06/06 05:46:56;;;;;;;5.50;4.03;;;;;;;;;;8331760;28;20471;-66
2021/06/06 05:51:02;;;;;;;8.13;4.28;;;;;;;;;;8327728;28;20360;-66
2021/06/06 05:55:24;;;;;;;5.30;3.30;;;;;;;;;;8327610;28;20355;-66
2021/06/06 05:59:33;;;;;;;3.78;2.80;;;;;;;;;;8329613;28;20351;-66
2021/06/06 06:03:38;;;;;;;3.92;2.92;;;;;;;;;;8328457;28;20466;-66
2021/06/06 06:07:43;;;;;;;2.72;2.33;;;;;;;;;;8328150;28;20531;-66
2021/06/06 06:11:48;;;;;;;7.18;2.58;;;;;;;;;;8326997;28;20410;-66
2021/06/06 06:15:53;;;;;;;5.00;2.47;;;;;;;;;;8330700;28;20378;-66
2021/06/06 06:19:59;;;;;;;4.28;2.38;;;;;;;;;;8330117;28;20465;-66
2021/06/06 06:24:05;;;;;;;3.30;2.42;;;;;;;;;;8330740;28;20467;-66
2021/06/06 06:28:12;;;;;;;3.22;2.50;;;;;;;;;;8327944;28;20044;-66
2021/06/06 06:32:40;;;;;;;3.28;2.20;;;;;;;;;;8289429;28;20052;-66
2021/06/06 06:36:46;;;;;;;4.25;2.72;;;;;;;;;;8329240;28;20486;-66
2021/06/06 06:40:51;;;;;;;;;;;;;;;;;;8328280;28;20466;-67
2021/06/06 06:44:56;;;;;;;4.22;2.20;;;;;;;;;;8329470;28;20345;-67
2021/06/06 06:49:01;;;;;;;2.35;1.80;;;;;;;;;;8327041;28;20356;-66
2021/06/06 06:53:07;;;;;;;2.33;1.83;;;;;;;;;;8326210;28;20101;-67
2021/06/06 06:57:13;;;;;;;2.97;1.70;;;;;;;;;;8326529;28;20489;-66
2021/06/06 07:01:19;;;;;;;3.63;2.00;;;;;;;;;;8328051;28;20347;-68
2021/06/06 07:05:25;;;;;;;3.45;1.90;;;;;;;;;;8326297;28;20489;-66
2021/06/06 07:09:30;;;;;;;4.65;1.65;;;;;;;;;;8327117;28;20477;-67
2021/06/06 07:13:35;;;;;;;3.22;1.70;;;;;;;;;;8325201;28;20470;-68
2021/06/06 07:17:41;;;;;;;2.17;1.38;;;;;;;;;;8325854;28;20052;-66
2021/06/06 07:21:46;;;;;;;4.93;1.73;;;;;;;;;;8327337;28;20457;-66
2021/06/06 07:25:52;;;;;;;1.67;1.58;;;;;;;;;;8326789;28;20459;-67
2021/06/06 07:29:57;;;;;;;3.35;2.03;;;;;;;;;;8325485;28;20414;-67
2021/06/06 07:34:02;;;;;;;3.08;2.15;;;;;;;;;;8326915;28;20371;-66
2021/06/06 07:38:07;;;;;;;3.50;1.70;;;;;;;;;;8327531;28;20480;-67
2021/06/06 07:42:14;;;;;;;9.05;2.20;;;;;;;;;;8324417;28;20375;-66
2021/06/06 07:46:19;;;;;;;4.35;1.60;;;;;;;;;;8325833;28;20394;-66
2021/06/06 07:50:28;;;;;;;4.45;2.75;;;;;;;;;;8326779;28;20338;-66
2021/06/06 07:54:34;;;;;;;3.38;2.35;;;;;;;;;;8325192;28;20366;-66
2021/06/06 07:58:39;;;;;;;4.95;2.20;;;;;;;;;;8324972;28;20363;-66
2021/06/06 08:02:44;;;;;;;5.95;2.42;;;;;;;;;;8324997;28;20560;-66
2021/06/06 08:06:49;;;;;;;4.20;2.22;;;;;;;;;;8324389;28;20473;-67
2021/06/06 08:11:02;;;;;;;6.22;1.88;;;;;;;;;;8325076;28;20074;-66
2021/06/06 08:15:08;;;;;;;2.65;1.67;;;;;;;;;;8322882;28;20369;-67
2021/06/06 08:19:14;;;;;;;2.70;2.00;;;;;;;;;;8324851;28;20477;-66
2021/06/06 08:23:18;;;;;;;3.42;2.15;;;;;;;;;;8324622;28;20378;-66
2021/06/06 08:27:23;;;;;;;2.22;1.58;;;;;;;;;;8323717;28;20463;-66
2021/06/06 08:31:34;;;;;;;3.92;1.90;;;;;;;;;;8323806;28;20444;-66
2021/06/06 08:35:41;;;;;;;5.43;1.60;;;;;;;;;;8323644;28;20352;-67
2021/06/06 08:39:44;;;;;;;2.75;1.70;;;;;;;;;;8323411;28;20479;-66
2021/06/06 08:43:54;;;;;;;;;;;;;;;;;;8322468;28;20074;-66
2021/06/06 08:48:03;;;;;;;7.05;1.88;;;;;;;;;;8324553;28;20272;-67
2021/06/06 08:52:52;;;;;;;2.97;1.60;;;;;;;;;;8321488;28;20371;-67
2021/06/06 08:57:22;;;;;;;2.35;1.60;;;;;;;;;;8324872;28;20378;-66
2021/06/06 09:01:34;;;;;;;3.45;1.70;;;;;;;;;;8322252;28;20470;-67
2021/06/06 09:05:45;;;;;;;1.98;1.42;;;;;;;;;;8321676;28;20381;-66
2021/06/06 09:09:51;;;;;;;4.97;1.85;;;;;;;;;;8321559;28;20455;-67
2021/06/06 09:13:57;;;;;;;3.70;1.63;;;;;;;;;;8321576;28;20455;-67
2021/06/06 09:18:25;;;;;;;3.70;1.40;;;;;;;;;;8322173;28;20070;-67
2021/06/06 09:22:44;;;;;;;4.22;1.52;;;;;;;;;;8321736;28;20626;-67
2021/06/06 09:26:48;;;;;;;2.80;1.45;;;;;;;;;;8319805;28;20474;-67
2021/06/06 09:31:04;;;;;;;1.80;1.27;;;;;;;;;;8322775;28;20340;-67
2021/06/06 09:35:28;;;;;;;2.67;1.27;;;;;;;;;;8321694;28;20455;-66
2021/06/06 09:39:45;;;;;;;1.80;1.40;;;;;;;;;;8322141;28;20371;-66
2021/06/06 09:44:32;;;;;;;2.67;1.40;;;;;;;;;;8322527;28;20425;-67
2021/06/06 09:48:40;;;;;;;5.35;1.27;;;;;;;;;;8323198;28;20362;-66
2021/06/06 09:52:47;;;;;;;4.07;1.25;;;;;;;;;;8320952;28;20367;-65
2021/06/06 09:56:57;;;;;;;3.63;1.48;;;;;;;;;;8323072;28;20056;-65
2021/06/06 10:01:18;;;;;;;2.63;1.25;;;;;;;;;;8320120;28;20466;-66
2021/06/06 10:05:30;;;;;;;2.95;1.52;;;;;;;;;;8320447;28;20479;-65
2021/06/06 10:09:35;;;;;;;2.17;1.50;;;;;;;;;;8323849;28;20378;-66
2021/06/06 10:13:46;;;;;;;2.67;1.50;;;;;;;;;;8322772;28;20373;-66
2021/06/06 10:18:02;;;;;;;6.70;1.95;;;;;;;;;;8323093;28;20473;-66
2021/06/06 10:22:24;;;;;;;1.40;0.98;;;;;;;;;;8327053;28;20386;-65
2021/06/06 10:26:52;;;;;;;2.97;1.30;;;;;;;;;;8327358;28;20370;-66
2021/06/06 10:31:05;;;;;;;3.88;1.30;;;;;;;;;;8326869;28;20466;-66
2021/06/06 10:35:12;;;;;;;3.38;1.40;;;;;;;;;;8327820;28;20387;-66
2021/06/06 10:39:31;;;;;;;1.90;1.40;;;;;;;;;;8327139;28;20114;-66
2021/06/06 10:44:06;;;;;;;3.78;1.42;;;;;;;;;;8326947;28;20501;-66
2021/06/06 10:48:32;;;;;;;4.97;1.35;;;;;;;;;;8326224;28;20504;-67
2021/06/06 10:52:38;;;;;;;4.33;1.57;;;;;;;;;;8327450;28;20379;-66
2021/06/06 10:57:25;;;;;;;3.17;1.00;;;;;;;;;;8326746;28;20471;-65
2021/06/06 11:01:50;;;;;;;1.90;1.20;;;;;;;;;;8318136;28;20377;-65
2021/06/06 11:06:01;;;;;;;2.88;1.67;;;;;;;;;;8325755;28;20451;-66
2021/06/06 11:10:18;;;;;;;4.38;1.27;;;;;;;;;;8327798;28;20413;-66
2021/06/06 11:14:37;;;;;;;2.35;1.10;;;;;;;;;;8326215;28;20348;-65
2021/06/06 11:18:49;;;;;;;1.85;1.33;;;;;;;;;;8326387;28;20401;-67
2021/06/06 11:22:56;;;;;;;3.33;1.00;;;;;;;;;;8326779;28;20367;-66
2021/06/06 11:27:16;;;;;;;2.58;1.30;;;;;;;;;;8325578;28;20407;-67
2021/06/06 11:31:30;;;;;;;1.65;1.20;;;;;;;;;;8325866;28;20467;-66
2021/06/06 11:35:35;;;;;;;3.55;1.13;;;;;;;;;;8325505;28;20482;-66
2021/06/06 11:39:45;;;;;;;1.45;1.05;;;;;;;;;;8325118;28;20387;-66
2021/06/06 11:43:56;;;;;;;2.15;1.35;;;;;;;;;;8326727;28;20388;-65
2021/06/06 11:48:09;;;;;;;2.97;1.67;;;;;;;;;;8325317;28;20052;-66
2021/06/06 11:52:34;;;;;;;3.30;1.40;;;;;;;;;;8325457;28;20048;-65
2021/06/06 11:56:41;;;;;;;4.32;1.25;;;;;;;;;;8325429;28;20451;-66
2021/06/06 12:00:55;;;;;;;6.97;1.50;;;;;;;;;;8325029;28;20385;-66
2021/06/06 12:05:30;;;;;;;3.35;1.20;;;;;;;;;;8325117;28;20409;-65
2021/06/06 12:09:39;;;;;;;1.57;1.10;;;;;;;;;;8308734;28;20355;-66
2021/06/06 12:13:46;;;;;;;1.30;1.10;;;;;;;;;;8325486;28;20360;-66
2021/06/06 12:18:23;;;;;;;5.13;1.27;;;;;;;;;;8323616;28;20340;-66
2021/06/06 12:22:37;;;;;;;3.72;1.65;;;;;;;;;;8324275;28;20056;-67
2021/06/06 12:27:02;;;;;;;5.45;1.20;;;;;;;;;;8325854;28;20336;-66
2021/06/06 12:31:20;;;;;;;7.15;2.13;;;;;;;;;;8325885;28;20455;-66
2021/06/06 12:35:56;;;;;;;1.83;1.40;;;;;;;;;;8322089;28;20446;-66
2021/06/06 12:40:23;;;;;;;3.70;1.37;;;;;;;;;;8320489;28;20474;-66
2021/06/06 12:44:34;;;;;;;3.42;1.80;;;;;;;;;;8322431;28;20473;-65
2021/06/06 12:48:53;;;;;;;2.63;1.30;;;;;;;;;;8323934;28;20471;-66
2021/06/06 12:53:06;;;;;;;5.45;1.50;;;;;;;;;;8323816;28;20367;-66
2021/06/06 12:57:21;;;;;;;4.00;1.55;;;;;;;;;;8323321;28;20540;-65
2021/06/06 13:01:28;;;;;;;2.47;1.40;;;;;;;;;;8323876;28;20336;-66
2021/06/06 13:05:46;;;;;;;2.80;1.02;;;;;;;;;;8323129;28;20078;-65
2021/06/06 13:09:54;;;;;;;2.13;1.25;;;;;;;;;;8323248;28;20470;-65
2021/06/06 13:14:16;;;;;;;1.45;1.08;;;;;;;;;;8322833;28;20474;-65
2021/06/06 13:18:29;;;;;;;2.60;1.08;;;;;;;;;;8323486;28;20479;-65
2021/06/06 13:22:34;;;;;;;2.88;1.10;;;;;;;;;;8323234;28;20463;-65
2021/06/06 13:26:42;;;;;;;3.45;1.30;;;;;;;;;;8325815;28;20361;-65
2021/06/06 13:30:48;;;;;;;3.95;1.20;;;;;;;;;;8324211;28;20386;-66
2021/06/06 13:35:00;;;;;;;1.20;1.10;;;;;;;;;;8323472;28;20389;-65
2021/06/06 13:39:26;;;;;;;2.63;1.42;;;;;;;;;;8323044;28;20078;-66
2021/06/06 13:43:32;;;;;;;5.35;1.30;;;;;;;;;;8324267;28;20364;-65
2021/06/06 13:47:38;;;;;;;3.72;1.30;;;;;;;;;;8322303;28;20352;-66
2021/06/06 13:51:44;;;;;;;3.25;1.27;;;;;;;;;;8321400;28;20398;-66
2021/06/06 13:55:49;;;;;;;6.57;1.73;;;;;;;;;;8330485;28;20455;-66
2021/06/06 13:59:54;;;;;;;1.95;1.40;;;;;;;;;;8328305;28;20354;-66
2021/06/06 14:03:58;;;;;;;6.97;1.42;;;;;;;;;;8329023;28;20074;-65
2021/06/06 14:08:04;;;;;;;3.65;1.58;;;;;;;;;;8328711;28;20462;-66
2021/06/06 14:12:12;;;;;;;1.95;1.08;;;;;;;;;;8328332;28;20396;-65
2021/06/06 14:16:23;;;;;;;2.55;1.42;;;;;;;;;;8326972;28;20458;-66
2021/06/06 14:20:28;;;;;;;1.42;1.17;;;;;;;;;;8330205;28;20067;-65
2021/06/06 14:24:36;;;;;;;2.05;1.13;;;;;;;;;;8327789;28;20478;-65
2021/06/06 14:28:41;;;;;;;;;;;;;;;;;;8328674;28;20379;-65
2021/06/06 14:32:46;;;;;;;3.53;0.90;;;;;;;;;;8327790;28;20250;-65
2021/06/06 14:36:50;;;;;;;3.25;1.30;;;;;;;;;;8327557;28;20036;-66
2021/06/06 14:40:57;;;;;;;4.15;1.30;;;;;;;;;;8329091;28;20408;-66
2021/06/06 14:45:01;;;;;;;2.35;1.27;;;;;;;;;;8328993;28;20447;-65
2021/06/06 14:49:06;;;;;;;4.07;1.50;;;;;;;;;;8330324;28;20371;-65
2021/06/06 14:53:15;;;;;;;2.08;1.40;;;;;;;;;;8328342;28;20462;-66
2021/06/06 14:57:20;;;;;;;1.92;1.30;;;;;;;;;;8325131;28;20055;-66
2021/06/06 15:01:25;;;;;;;2.38;1.10;;;;;;;;;;8327363;28;20044;-66
2021/06/06 15:05:31;;;;;;;2.75;1.25;;;;;;;;;;8328051;28;20502;-66
2021/06/06 15:09:36;;;;;;;3.55;1.42;;;;;;;;;;8328398;28;20360;-66
2021/06/06 15:13:45;;;;;;;3.95;1.50;;;;;;;;;;8327384;28;20524;-66
2021/06/06 15:17:53;;;;;;;17.52;1.70;;;;;;;;;;8326186;28;20477;-67
2021/06/06 15:21:58;;;;;;;6.00;1.50;;;;;;;;;;8328631;28;20052;-66
2021/06/06 15:26:07;;;;;;;5.97;1.48;;;;;;;;;;8328926;28;20471;-67
2021/06/06 15:30:13;;;;;;;2.15;1.40;;;;;;;;;;8325385;28;20048;-66
2021/06/06 15:34:21;;;;;;;5.50;2.30;;;;;;;;;;8326492;28;20482;-66
2021/06/06 15:38:29;;;;;;;8.43;3.42;;;;;;;;;;8325584;28;20048;-66
2021/06/06 15:42:35;;;;;;;4.35;1.58;;;;;;;;;;8325619;28;20386;-67
2021/06/06 15:46:42;;;;;;;5.07;1.30;;;;;;;;;;8326187;28;20450;-67
2021/06/06 15:50:47;;;;;;;3.17;1.40;;;;;;;;;;8327313;28;20340;-66
2021/06/06 15:54:51;;;;;;;6.00;1.35;;;;;;;;;;8323411;28;20811;-66
2021/06/06 15:58:56;;;;;;;11.48;1.98;;;;;;;;;;8326914;28;20044;-65
2021/06/06 16:03:08;;;;;;;1.85;1.20;;;;;;;;;;8323088;28;20355;-65
2021/06/06 16:07:14;;;;;;;6.78;1.45;;;;;;;;;;8323930;28;20376;-66
2021/06/06 16:11:23;;;;;;;4.28;1.73;;;;;;;;;;8324480;28;20044;-67
2021/06/06 16:15:29;;;;;;;4.47;1.48;;;;;;;;;;8324117;28;20348;-66
2021/06/06 16:19:34;;;;;;;2.83;1.77;;;;;;;;;;8324323;28;20371;-66
2021/06/06 16:23:39;;;;;;;12.13;2.03;;;;;;;;;;8324049;28;20359;-65
2021/06/06 16:27:46;;;;;;;3.65;1.73;;;;;;;;;;8324335;28;20059;-68
2021/06/06 16:31:50;;;;;;;7.00;1.70;;;;;;;;;;8326398;28;20077;-66
2021/06/06 16:35:56;;;;;;;5.60;1.58;;;;;;;;;;8320720;28;20485;-65
2021/06/06 16:40:01;;;;;;;23.52;2.55;;;;;;;;;;8323784;28;20386;-66
2021/06/06 16:44:06;;;;;;;4.47;1.67;;;;;;;;;;8322339;28;20388;-65
2021/06/06 16:48:15;;;;;;;7.18;1.90;;;;;;;;;;8321189;28;20493;-65
2021/06/06 16:52:19;;;;;;;;;;;;;;;;;;8323937;28;20459;-66
2021/06/06 16:56:25;;;;;;;19.63;1.95;;;;;;;;;;8323073;28;20489;-65
2021/06/06 17:00:33;;;;;;;6.97;1.60;;;;;;;;;;8325397;28;20370;-66
2021/06/06 17:04:38;;;;;;;3.72;1.70;;;;;;;;;;8323722;28;20052;-66
2021/06/06 17:08:43;;;;;;;2.22;1.60;;;;;;;;;;8322221;28;20398;-66
2021/06/06 17:12:49;;;;;;;2.22;1.40;;;;;;;;;;8322054;28;20451;-67
2021/06/06 17:16:53;;;;;;;2.75;1.27;;;;;;;;;;8322746;28;20040;-66
2021/06/06 17:21:03;;;;;;;2.90;1.48;;;;;;;;;;8323065;28;20383;-67
2021/06/06 17:25:09;;;;;;;2.20;1.02;;;;;;;;;;8322977;28;20362;-66
2021/06/06 17:29:16;;;;;;;1.98;1.30;;;;;;;;;;8330056;28;20048;-66
2021/06/06 17:33:23;;;;;;;3.30;1.60;;;;;;;;;;8330229;28;20509;-66
2021/06/06 17:37:30;;;;;;;4.18;1.77;;;;;;;;;;8331877;28;20447;-66
2021/06/06 17:41:35;;;;;;;2.95;1.40;;;;;;;;;;8330702;28;20062;-66
2021/06/06 17:45:40;;;;;;;1.52;1.30;;;;;;;;;;8329360;28;20374;-66
2021/06/06 17:49:45;;;;;;;2.92;1.15;;;;;;;;;;8329113;28;20427;-67
2021/06/06 17:53:50;;;;;;;3.92;1.52;;;;;;;;;;8328305;28;20066;-66
2021/06/06 17:57:56;;;;;;;5.90;1.75;;;;;;;;;;8329673;28;20488;-67
2021/06/06 18:02:03;;;;;;;2.70;1.42;;;;;;;;;;8328930;28;20382;-66
2021/06/06 18:06:08;;;;;;;2.30;1.52;;;;;;;;;;8329601;28;20422;-66
2021/06/06 18:10:13;;;;;;;2.88;1.65;;;;;;;;;;8328752;28;20375;-65
2021/06/06 18:14:24;;;;;;;3.65;1.70;;;;;;;;;;8328486;28;20398;-66
2021/06/06 18:18:30;;;;;;;4.53;1.77;;;;;;;;;;8327517;28;20478;-66
2021/06/06 18:22:36;;;;;;;5.03;1.63;;;;;;;;;;8327112;28;20465;-66
2021/06/06 18:26:42;;;;;;;2.83;1.77;;;;;;;;;;8328605;28;20462;-65
2021/06/06 18:30:48;;;;;;;3.50;1.80;;;;;;;;;;8329496;28;20470;-66
2021/06/06 18:34:53;;;;;;;3.85;1.85;;;;;;;;;;8327474;28;20355;-66
2021/06/06 18:38:58;;;;;;;2.40;1.70;;;;;;;;;;8327570;28;20493;-66
2021/06/06 18:43:04;;;;;;;5.25;2.10;;;;;;;;;;8328345;28;20366;-66
2021/06/06 18:47:09;;;;;;;4.88;2.00;;;;;;;;;;8327801;28;20463;-64
2021/06/06 18:51:18;;;;;;;4.05;1.80;;;;;;;;;;8327048;28;20394;-66
2021/06/06 18:55:30;;;;;;;5.13;3.10;;;;;;;;;;8326492;28;20364;-66
2021/06/06 18:59:35;;;;;;;10.38;2.58;;;;;;;;;;8326485;28;20390;-65
2021/06/06 19:03:42;;;;;;;2.95;2.20;;;;;;;;;;8327955;28;20458;-65
2021/06/06 19:07:49;;;;;;;4.20;2.20;;;;;;;;;;8327192;28;20455;-65
2021/06/06 19:11:58;;;;;;;3.40;2.20;;;;;;;;;;8325950;28;20469;-66
2021/06/06 19:16:04;;;;;;;7.05;2.47;;;;;;;;;;8326725;28;20405;-66
2021/06/06 19:20:11;;;;;;;6.13;2.15;;;;;;;;;;8328109;28;20389;-65
2021/06/06 19:24:19;;;;;;;4.30;2.35;;;;;;;;;;8326344;28;20496;-67
2021/06/06 19:28:29;;;;;;;5.68;2.30;;;;;;;;;;8325336;28;20351;-65
2021/06/06 19:32:33;;;;;;;10.82;2.25;;;;;;;;;;8326051;28;20070;-65
2021/06/06 19:36:37;;;;;;;4.60;1.90;;;;;;;;;;8326956;28;20082;-66
2021/06/06 19:40:43;;;;;;;3.10;2.38;;;;;;;;;;8325702;28;20478;-65
2021/06/06 19:44:48;;;;;;;3.72;2.40;;;;;;;;;;8326944;28;20467;-65
2021/06/06 19:48:52;;;;;;;7.22;2.67;;;;;;;;;;8324790;28;20048;-65
2021/06/06 19:52:56;;;;;;;3.55;2.35;;;;;;;;;;8327265;28;20439;-65
2021/06/06 19:57:02;;;;;;;5.47;2.13;;;;;;;;;;8325555;28;20368;-65
2021/06/06 20:06:46;;;;;;;4.15;2.25;;;;;;;;;;8326828;28;20074;-66
2021/06/06 20:10:53;;;;;;;6.63;2.80;;;;;;;;;;8327326;28;20048;-65
2021/06/06 20:14:58;;;;;;;4.17;3.17;;;;;;;;;;8325263;28;20363;-64
2021/06/06 20:19:04;;;;;;;6.35;2.67;;;;;;;;;;8324122;28;20387;-65
2021/06/06 20:23:17;;;;;;;5.45;2.97;;;;;;;;;;8327247;28;20489;-65
2021/06/06 20:27:27;;;;;;;4.43;2.42;;;;;;;;;;8326626;28;20501;-65
2021/06/06 20:31:41;;;;;;;3.88;2.75;;;;;;;;;;8325361;28;20359;-65
2021/06/06 20:35:47;;;;;;;4.15;2.60;;;;;;;;;;8325707;28;20331;-65
2021/06/06 20:39:55;;;;;;;5.38;2.30;;;;;;;;;;8324981;28;20370;-68
2021/06/06 20:44:09;;;;;;;3.55;2.47;;;;;;;;;;8325301;28;20051;-67
2021/06/06 20:48:29;;;;;;;2.78;2.00;;;;;;;;;;8264944;28;20455;-67
2021/06/06 20:52:42;;;;;;;3.85;2.65;;;;;;;;;;8324225;28;20453;-66
2021/06/06 20:56:47;;;;;;;8.02;3.13;;;;;;;;;;8324652;28;20366;-67
2021/06/06 21:00:54;;;;;;;5.28;2.30;;;;;;;;;;8323459;28;20480;-67
2021/06/06 21:04:59;;;;;;;3.58;2.33;;;;;;;;;;8323820;28;20494;-67
2021/06/06 21:09:05;;;;;;;3.53;2.25;;;;;;;;;;8323508;28;20470;-67
2021/06/06 21:13:12;;;;;;;4.55;2.22;;;;;;;;;;8325043;28;20385;-68
2021/06/06 21:17:19;;;;;;;4.65;2.13;;;;;;;;;;8323516;28;20455;-66
2021/06/06 21:21:26;;;;;;;3.53;2.00;;;;;;;;;;8321944;28;20048;-67
2021/06/06 21:25:33;;;;;;;5.00;2.67;;;;;;;;;;8321677;28;20382;-66
2021/06/06 21:29:38;;;;;;;2.88;2.20;;;;;;;;;;8321920;28;20455;-67
2021/06/06 21:33:47;;;;;;;3.05;2.15;;;;;;;;;;8323850;28;20489;-66
2021/06/06 21:37:53;;;;;;;7.10;2.10;;;;;;;;;;8325853;28;20387;-67
2021/06/06 21:42:00;;;;;;;8.82;2.70;;;;;;;;;;8323837;28;20052;-67
2021/06/06 21:46:08;;;;;;;3.08;2.58;;;;;;;;;;8322502;28;20350;-67
2021/06/06 21:50:11;;;;;;;5.38;2.38;;;;;;;;;;8324473;28;20583;-66
2021/06/06 21:54:17;;;;;;;6.28;2.88;;;;;;;;;;8323823;28;20044;-67
2021/06/06 21:58:23;;;;;;;3.67;2.50;;;;;;;;;;8325853;28;20473;-67
2021/06/06 22:02:27;;;;;;;3.47;2.60;;;;;;;;;;8322768;28;20390;-67
2021/06/06 22:06:38;;;;;;;3.50;2.35;;;;;;;;;;8321991;28;20359;-68
2021/06/06 22:10:49;;;;;;;3.33;2.42;;;;;;;;;;8322907;28;20387;-67
2021/06/06 22:14:53;;;;;;;6.90;2.88;;;;;;;;;;8325931;28;20078;-67
2021/06/06 22:19:00;;;;;;;8.52;2.83;;;;;;;;;;8329831;28;20369;-67
2021/06/06 22:23:59;;;;;;;15.02;2.70;;;;;;;;;;8329175;28;20052;-67
2021/06/06 22:29:01;;;;;;;4.85;2.53;;;;;;;;;;8328020;28;20432;-67
2021/06/06 22:34:02;;;;;;;4.68;2.97;;;;;;;;;;8328581;28;20052;-67
2021/06/06 22:39:04;;;;;;;5.13;2.30;;;;;;;;;;8328295;28;20368;-67
2021/06/06 22:44:05;;;;;;;4.15;2.55;;;;;;;;;;8327918;28;20052;-67
2021/06/06 22:49:07;;;;;;;4.53;2.45;;;;;;;;;;8328153;28;20370;-68
2021/06/06 22:54:08;;;;;;;2.50;2.05;;;;;;;;;;8329213;28;20493;-67
2021/06/06 22:59:09;;;;;;;3.22;2.67;;;;;;;;;;8328304;28;20485;-67
2021/06/06 23:04:11;;;;;;;3.65;2.13;;;;;;;;;;8328334;28;20379;-66
2021/06/06 23:09:12;;;;;;;3.70;2.40;;;;;;;;;;8327819;28;20477;-67
2021/06/06 23:14:13;;;;;;;2.60;2.10;;;;;;;;;;8326967;28;20455;-67
2021/06/06 23:18:19;;;;;;;3.22;2.28;;;;;;;;;;8327138;28;20470;-67
2021/06/06 23:22:26;;;;;;;4.53;2.03;;;;;;;;;;8328138;28;20463;-67
2021/06/06 23:26:32;;;;;;;3.78;1.90;;;;;;;;;;8327138;28;20071;-67
2021/06/06 23:30:37;;;;;;;5.05;2.95;;;;;;;;;;8326662;28;20048;-67
2021/06/06 23:34:43;;;;;;;7.22;2.53;;;;;;;;;;8324986;28;20467;-67
2021/06/06 23:38:48;;;;;;;3.38;2.40;;;;;;;;;;8327056;28;20394;-67
2021/06/06 23:42:53;;;;;;;3.67;2.38;;;;;;;;;;8325844;28;20088;-67
2021/06/06 23:46:58;;;;;;;5.63;2.85;;;;;;;;;;8325272;28;20466;-68
2021/06/06 23:51:05;;;;;;;5.05;2.33;;;;;;;;;;8327893;28;20339;-66
2021/06/06 23:55:10;;;;;;;5.75;2.38;;;;;;;;;;8325536;28;20459;-68
2021/06/06 23:59:16;;;;;;;4.72;2.38;;;;;;;;;;8324424;28;20447;-67
